Time;durP1;ratioP1;P1;durP2;ratioP2;P2;SDS_P1;SDS_P2;PMS_P1;PMS_P2;Temp;Humidity;BMP_temperature;BMP_pressure;BME280_temperature;BME280_humidity;BME280_pressure;Samples;Min_cycle;Max_cycle;Signal;HPM_P1;HPM_P2
2021/05/29 00:00:31;;;;;;;4.30;3.90;;;14.50;98.60;;;;;;6252668;28;20820;-64
2021/05/29 00:03:34;;;;;;;4.67;4.27;;;14.40;98.40;;;;;;6252604;28;20463;-62
2021/05/29 00:06:37;;;;;;;4.20;3.70;;;14.30;98.40;;;;;;6252525;28;20482;-63
2021/05/29 00:09:40;;;;;;;3.73;3.40;;;14.30;98.50;;;;;;6252548;28;20546;-62
2021/05/29 00:12:44;;;;;;;4.23;3.80;;;14.30;98.70;;;;;;6252251;28;20470;-62
2021/05/29 00:15:52;;;;;;;3.70;3.40;;;14.30;98.70;;;;;;6252299;28;20487;-64
2021/05/29 00:18:55;;;;;;;4.80;3.93;;;14.30;99.00;;;;;;6252128;28;20470;-62
2021/05/29 00:21:58;;;;;;;4.50;4.00;;;14.30;99.10;;;;;;6252129;28;20533;-62
2021/05/29 00:25:01;;;;;;;8.30;4.10;;;14.20;99.20;;;;;;6251755;28;20494;-61
2021/05/29 00:28:05;;;;;;;4.50;4.10;;;14.30;99.40;;;;;;6251896;28;20474;-61
2021/05/29 00:31:08;;;;;;;4.37;3.97;;;14.20;99.50;;;;;;6251614;28;20496;-61
2021/05/29 00:34:11;;;;;;;5.40;3.93;;;14.20;99.70;;;;;;6243320;28;20490;-61
2021/05/29 00:37:14;;;;;;;5.37;4.30;;;14.20;99.80;;;;;;6251693;28;20475;-61
2021/05/29 00:40:17;;;;;;;5.47;3.87;;;14.20;99.80;;;;;;6251182;28;20909;-61
2021/05/29 00:43:21;;;;;;;3.80;3.47;;;14.20;99.90;;;;;;6251300;28;20438;-61
2021/05/29 00:46:24;;;;;;;4.30;4.00;;;14.20;99.90;;;;;;6251776;28;20471;-61
2021/05/29 00:49:27;;;;;;;5.70;4.10;;;14.20;99.90;;;;;;6251352;28;20477;-61
2021/05/29 00:52:30;;;;;;;4.70;4.40;;;14.30;99.90;;;;;;6251633;28;20446;-61
2021/05/29 00:55:33;;;;;;;5.00;4.50;;;14.30;99.80;;;;;;6251211;28;20840;-61
2021/05/29 00:58:36;;;;;;;4.63;3.60;;;14.30;99.80;;;;;;6250889;28;20793;-61
2021/05/29 01:01:39;;;;;;;7.27;4.17;;;14.30;99.90;;;;;;6251668;28;20477;-62
2021/05/29 01:04:43;;;;;;;3.90;3.60;;;14.20;99.80;;;;;;6250857;28;20801;-61
2021/05/29 01:07:48;;;;;;;3.33;3.13;;;14.20;99.80;;;;;;6251483;28;20466;-61
2021/05/29 01:10:51;;;;;;;4.23;3.93;;;14.30;99.80;;;;;;6251078;28;20463;-61
2021/05/29 01:13:58;;;;;;;4.27;3.53;;;14.30;99.80;;;;;;6251144;28;20483;-61
2021/05/29 01:17:04;;;;;;;3.90;3.60;;;14.30;99.90;;;;;;6251012;28;20471;-61
2021/05/29 01:20:09;;;;;;;4.50;4.10;;;14.20;99.90;;;;;;6250783;28;20467;-61
2021/05/29 01:23:13;;;;;;;5.50;4.20;;;14.20;99.90;;;;;;6250748;28;20475;-61
2021/05/29 01:26:16;;;;;;;3.90;3.47;;;14.10;99.90;;;;;;6250822;28;20475;-61
2021/05/29 01:29:19;;;;;;;4.10;3.80;;;14.10;99.90;;;;;;6250570;28;20478;-61
2021/05/29 01:32:23;;;;;;;4.00;3.60;;;14.00;99.90;;;;;;6250814;28;20855;-61
2021/05/29 01:35:27;;;;;;;4.63;4.20;;;14.00;99.90;;;;;;6250422;28;20621;-61
2021/05/29 01:38:30;;;;;;;4.13;3.73;;;14.00;99.90;;;;;;6250446;28;20990;-61
2021/05/29 01:41:33;;;;;;;3.93;3.63;;;14.00;99.90;;;;;;6250554;28;20467;-61
2021/05/29 01:44:37;;;;;;;3.67;3.37;;;13.90;99.90;;;;;;6249892;28;20486;-62
2021/05/29 01:47:43;;;;;;;3.33;3.10;;;13.90;99.90;;;;;;6250506;28;20489;-61
2021/05/29 01:50:49;;;;;;;3.83;3.53;;;13.90;99.90;;;;;;6249865;28;20471;-61
2021/05/29 01:53:54;;;;;;;5.00;3.93;;;13.80;99.90;;;;;;6249935;28;20494;-61
2021/05/29 01:56:58;;;;;;;3.83;3.60;;;13.70;99.90;;;;;;6249874;28;20491;-61
2021/05/29 02:00:01;;;;;;;3.93;3.60;;;13.60;99.90;;;;;;6249850;28;20995;-61
2021/05/29 02:03:04;;;;;;;4.07;3.77;;;13.50;99.90;;;;;;6249806;28;20463;-62
2021/05/29 02:06:08;;;;;;;5.90;3.90;;;13.40;99.90;;;;;;6249726;28;20475;-62
2021/05/29 02:09:11;;;;;;;4.00;3.70;;;13.40;99.90;;;;;;6250171;28;20467;-62
2021/05/29 02:12:14;;;;;;;4.57;4.17;;;13.50;99.90;;;;;;6249740;28;20813;-61
2021/05/29 02:15:19;;;;;;;4.10;3.30;;;13.50;99.90;;;;;;6249343;28;20797;-61
2021/05/29 02:18:22;;;;;;;5.70;4.30;;;13.50;99.90;;;;;;6249959;28;20467;-62
2021/05/29 02:21:25;;;;;;;5.20;4.20;;;13.60;99.90;;;;;;6249566;28;20475;-61
2021/05/29 02:24:28;;;;;;;4.40;3.87;;;13.50;99.90;;;;;;6249796;28;20486;-61
2021/05/29 02:27:31;;;;;;;4.03;3.63;;;13.40;99.90;;;;;;6249562;28;20467;-61
2021/05/29 02:30:34;;;;;;;4.50;3.90;;;13.40;99.90;;;;;;6249276;28;20471;-61
2021/05/29 02:33:38;;;;;;;4.33;4.03;;;13.40;99.90;;;;;;6249475;28;20467;-61
2021/05/29 02:36:40;;;;;;;3.83;3.53;;;13.40;99.90;;;;;;6249066;28;20475;-61
2021/05/29 02:39:44;;;;;;;3.70;3.37;;;13.30;99.90;;;;;;6244888;28;20478;-61
2021/05/29 02:42:47;;;;;;;3.40;3.20;;;13.30;99.90;;;;;;6248973;28;20485;-61
2021/05/29 02:45:50;;;;;;;5.53;3.40;;;13.30;99.90;;;;;;6249350;28;20482;-61
2021/05/29 02:48:52;;;;;;;3.27;3.07;;;13.40;99.90;;;;;;6249057;28;20483;-62
2021/05/29 02:51:55;;;;;;;3.90;3.57;;;13.40;99.90;;;;;;6249005;28;20845;-61
2021/05/29 02:54:59;;;;;;;7.10;2.90;;;13.40;99.90;;;;;;6248995;28;20811;-62
2021/05/29 02:58:01;;;;;;;3.70;3.40;;;13.40;99.90;;;;;;6249288;28;20490;-61
2021/05/29 03:01:04;;;;;;;3.73;3.43;;;13.40;99.90;;;;;;6249254;28;20489;-62
2021/05/29 03:04:07;;;;;;;3.30;3.10;;;13.40;99.90;;;;;;6249873;28;20613;-61
2021/05/29 03:07:10;;;;;;;4.07;3.40;;;13.50;99.90;;;;;;6254052;28;20485;-62
2021/05/29 03:10:15;;;;;;;4.03;3.70;;;13.50;99.90;;;;;;6253523;28;20483;-61
2021/05/29 03:13:19;;;;;;;3.83;3.53;;;13.50;99.90;;;;;;6253596;28;20460;-61
2021/05/29 03:16:21;;;;;;;4.00;3.60;;;13.50;99.90;;;;;;6253385;28;20479;-62
2021/05/29 03:19:24;;;;;;;3.57;3.30;;;13.50;99.90;;;;;;6253390;28;20779;-62
2021/05/29 03:22:27;;;;;;;3.50;3.30;;;13.50;99.90;;;;;;6253277;28;20450;-61
2021/05/29 03:25:31;;;;;;;4.03;3.70;;;13.50;99.90;;;;;;6253352;28;20459;-61
2021/05/29 03:28:34;;;;;;;4.10;3.80;;;13.50;99.90;;;;;;6252915;28;20442;-62
2021/05/29 03:31:37;;;;;;;3.80;3.40;;;13.50;99.90;;;;;;6253347;28;20462;-61
2021/05/29 03:34:41;;;;;;;3.73;3.50;;;13.60;99.90;;;;;;6253405;28;21370;-61
2021/05/29 03:37:44;;;;;;;3.50;3.30;;;13.50;99.90;;;;;;6253515;28;20475;-61
2021/05/29 03:40:48;;;;;;;4.07;3.77;;;13.50;99.90;;;;;;6253433;28;20469;-61
2021/05/29 03:43:51;;;;;;;3.90;3.60;;;13.40;99.90;;;;;;6253268;28;20475;-61
2021/05/29 03:46:53;;;;;;;3.50;3.20;;;13.50;99.90;;;;;;6253012;28;20845;-61
2021/05/29 03:49:56;;;;;;;4.00;3.73;;;13.50;99.90;;;;;;6252789;28;20478;-61
2021/05/29 03:52:59;;;;;;;3.50;3.20;;;13.40;99.90;;;;;;6253300;28;20470;-61
2021/05/29 03:56:03;;;;;;;4.13;3.73;;;13.50;99.90;;;;;;6252445;28;20485;-61
2021/05/29 03:59:12;;;;;;;4.10;3.70;;;13.50;99.90;;;;;;6252786;28;20463;-60
2021/05/29 04:02:14;;;;;;;4.37;3.90;;;13.50;99.90;;;;;;6252459;28;20481;-61
2021/05/29 04:05:20;;;;;;;4.30;3.23;;;13.50;99.90;;;;;;6252518;28;20773;-61
2021/05/29 04:08:23;;;;;;;3.63;3.13;;;13.60;99.90;;;;;;6252358;28;20485;-61
2021/05/29 04:11:27;;;;;;;3.60;3.30;;;13.60;99.90;;;;;;6252681;28;20474;-62
2021/05/29 04:14:29;;;;;;;4.50;3.60;;;13.70;99.90;;;;;;6252172;28;20475;-62
2021/05/29 04:17:32;;;;;;;3.60;3.30;;;13.60;99.90;;;;;;6252568;28;20493;-61
2021/05/29 04:20:35;;;;;;;3.90;3.60;;;13.70;99.90;;;;;;6252259;28;20482;-61
2021/05/29 04:23:38;;;;;;;4.03;3.70;;;13.70;99.90;;;;;;6252040;28;20976;-62
2021/05/29 04:26:41;;;;;;;3.70;3.23;;;13.80;99.90;;;;;;6252563;28;20471;-62
2021/05/29 04:29:44;;;;;;;4.07;3.70;;;13.90;99.90;;;;;;6251768;28;20467;-61
2021/05/29 04:32:47;;;;;;;3.47;3.27;;;14.00;99.90;;;;;;6252259;28;20467;-62
2021/05/29 04:35:51;;;;;;;5.07;3.43;;;14.10;99.90;;;;;;6251611;28;20493;-62
2021/05/29 04:38:54;;;;;;;3.63;3.33;;;14.10;99.90;;;;;;6252044;28;20475;-61
2021/05/29 04:41:57;;;;;;;3.63;3.30;;;14.30;99.90;;;;;;6251561;28;20788;-62
2021/05/29 04:45:00;;;;;;;4.13;3.80;;;14.30;99.90;;;;;;6251815;28;20467;-61
2021/05/29 04:48:03;;;;;;;5.40;3.70;;;14.30;99.90;;;;;;6246735;28;21041;-62
2021/05/29 04:51:12;;;;;;;7.30;3.60;;;14.40;99.90;;;;;;6251440;28;20471;-62
2021/05/29 04:54:15;;;;;;;4.30;3.50;;;14.40;99.90;;;;;;6251193;28;20475;-62
2021/05/29 04:57:19;;;;;;;4.17;3.73;;;14.40;99.90;;;;;;6251154;28;20478;-62
2021/05/29 05:00:22;;;;;;;3.30;3.10;;;14.50;99.90;;;;;;6251290;28;20478;-61
2021/05/29 05:03:25;;;;;;;3.63;3.43;;;14.60;99.90;;;;;;6251447;28;20490;-62
2021/05/29 05:06:29;;;;;;;3.63;3.27;;;14.70;99.90;;;;;;6250926;28;20813;-61
2021/05/29 05:09:31;;;;;;;3.87;3.33;;;14.80;99.90;;;;;;6251098;28;20486;-59
2021/05/29 05:12:35;;;;;;;3.70;3.40;;;14.90;99.90;;;;;;6251085;28;20475;-59
2021/05/29 05:15:38;;;;;;;3.47;3.27;;;15.10;99.90;;;;;;6251015;28;20481;-60
2021/05/29 05:18:41;;;;;;;3.80;3.50;;;15.20;99.90;;;;;;6251031;28;20810;-59
2021/05/29 05:21:44;;;;;;;4.53;3.70;;;15.30;99.90;;;;;;6250499;28;20973;-59
2021/05/29 05:24:47;;;;;;;4.30;3.93;;;15.30;99.90;;;;;;6250702;28;20474;-59
2021/05/29 05:27:51;;;;;;;4.37;3.67;;;15.50;99.90;;;;;;6249776;28;20498;-60
2021/05/29 05:30:55;;;;;;;3.37;3.10;;;15.60;99.90;;;;;;6250927;28;20475;-60
2021/05/29 05:33:58;;;;;;;3.00;2.80;;;15.70;99.70;;;;;;6250297;28;20470;-60
2021/05/29 05:37:01;;;;;;;3.60;3.30;;;15.90;99.50;;;;;;6250277;28;20474;-59
2021/05/29 05:40:05;;;;;;;3.83;3.50;;;16.10;99.40;;;;;;6250273;28;20475;-59
2021/05/29 05:43:09;;;;;;;3.83;3.53;;;16.10;99.00;;;;;;6250254;28;20967;-59
2021/05/29 05:46:13;;;;;;;4.20;3.80;;;16.30;98.90;;;;;;6250446;28;20468;-60
2021/05/29 05:49:16;;;;;;;3.47;3.23;;;16.50;98.70;;;;;;6249999;28;20792;-61
2021/05/29 05:52:19;;;;;;;3.67;3.37;;;16.60;98.30;;;;;;6250013;28;20896;-60
2021/05/29 05:55:22;;;;;;;3.23;3.03;;;16.70;97.80;;;;;;6250063;28;20486;-62
2021/05/29 05:58:25;;;;;;;5.23;4.23;;;16.70;97.40;;;;;;6250054;28;20820;-62
2021/05/29 06:01:28;;;;;;;5.83;3.80;;;16.70;97.20;;;;;;6249571;28;20454;-62
2021/05/29 06:04:31;;;;;;;3.93;3.63;;;16.70;97.30;;;;;;6249972;28;20489;-62
2021/05/29 06:07:34;;;;;;;4.17;3.77;;;16.70;97.20;;;;;;6249832;28;20439;-62
2021/05/29 06:10:37;;;;;;;4.03;3.73;;;16.70;96.90;;;;;;6249944;28;20478;-62
2021/05/29 06:20:22;;;;;;;3.87;3.57;;;17.00;95.60;;;;;;6249271;28;20479;-63
2021/05/29 06:23:25;;;;;;;5.00;4.10;;;17.20;96.00;;;;;;6249477;28;20485;-62
2021/05/29 06:26:28;;;;;;;4.33;3.97;;;17.70;95.60;;;;;;6248889;28;20960;-62
2021/05/29 06:29:31;;;;;;;6.60;4.70;;;18.10;94.30;;;;;;6249472;28;20467;-62
2021/05/29 06:32:34;;;;;;;3.90;3.60;;;18.40;93.30;;;;;;6249402;28;20483;-64
2021/05/29 06:35:37;;;;;;;4.10;3.77;;;18.80;92.40;;;;;;6249126;28;20483;-64
2021/05/29 06:38:40;;;;;;;3.83;3.53;;;19.50;91.20;;;;;;6249484;28;20477;-62
2021/05/29 06:41:43;;;;;;;4.70;4.10;;;20.10;89.10;;;;;;6254374;28;20574;-62
2021/05/29 06:44:46;;;;;;;3.60;3.30;;;21.00;85.60;;;;;;6254406;28;20325;-62
2021/05/29 06:47:49;;;;;;;5.57;5.17;;;21.70;81.20;;;;;;6254116;28;20574;-60
2021/05/29 06:50:53;;;;;;;4.10;3.70;;;22.00;78.00;;;;;;6254112;28;20228;-62
2021/05/29 06:53:56;;;;;;;4.17;3.60;;;22.10;76.70;;;;;;6254360;28;20232;-62
2021/05/29 07:00:20;;;;;;;4.50;4.20;;;21.40;75.30;;;;;;6253980;28;20564;-62
2021/05/29 07:03:23;;;;;;;3.70;3.40;;;20.40;77.60;;;;;;6254135;28;20235;-64
2021/05/29 07:06:26;;;;;;;4.63;4.23;;;19.70;80.10;;;;;;6253512;28;20807;-64
2021/05/29 07:09:29;;;;;;;4.40;4.10;;;19.90;80.70;;;;;;6254024;28;20575;-60
2021/05/29 07:12:31;;;;;;;5.07;4.67;;;20.50;78.60;;;;;;6253424;28;20235;-59
2021/05/29 07:15:37;;;;;;;4.13;3.73;;;20.60;76.70;;;;;;6253423;28;20229;-59
2021/05/29 07:18:45;;;;;;;4.63;4.27;;;20.60;77.70;;;;;;6253453;28;20343;-59
2021/05/29 07:21:48;;;;;;;4.70;4.27;;;20.60;76.90;;;;;;6253787;28;20232;-59
2021/05/29 07:24:51;;;;;;;4.27;3.87;;;21.50;74.40;;;;;;6253433;28;20232;-60
2021/05/29 07:27:53;;;;;;;4.60;3.83;;;22.60;70.80;;;;;;6253436;28;20232;-59
2021/05/29 07:30:57;;;;;;;3.80;3.50;;;23.20;69.10;;;;;;6253105;28;20570;-60
2021/05/29 07:34:00;;;;;;;4.73;4.40;;;23.80;65.60;;;;;;6253358;28;20243;-60
2021/05/29 07:37:03;;;;;;;5.07;4.63;;;23.70;65.90;;;;;;6253447;28;20232;-60
2021/05/29 07:40:07;;;;;;;4.53;4.23;;;25.40;61.90;;;;;;6253163;28;20232;-60
2021/05/29 07:43:10;;;;;;;4.23;3.80;;;26.30;57.70;;;;;;6253273;28;20584;-60
2021/05/29 07:46:15;;;;;;;5.20;4.70;;;25.80;56.80;;;;;;6252708;28;20228;-60
2021/05/29 07:49:18;;;;;;;5.40;4.90;;;25.00;57.60;;;;;;6252981;28;20216;-60
2021/05/29 07:52:42;;;;;;;5.00;4.60;;;24.30;58.20;;;;;;6253144;28;20279;-59
2021/05/29 07:55:46;;;;;;;5.20;4.80;;;23.70;59.20;;;;;;6248209;28;20234;-59
2021/05/29 07:58:50;;;;;;;4.40;4.10;;;23.30;60.20;;;;;;6252363;28;20244;-60
2021/05/29 08:01:53;;;;;;;5.00;4.60;;;23.10;60.30;;;;;;6252583;28;20307;-59
2021/05/29 08:04:57;;;;;;;4.90;4.50;;;22.60;61.00;;;;;;6252128;28;20224;-60
2021/05/29 08:07:59;;;;;;;4.63;4.30;;;22.50;60.70;;;;;;6252882;28;20228;-60
2021/05/29 08:11:03;;;;;;;4.67;4.27;;;22.50;60.40;;;;;;6251822;28;20258;-60
2021/05/29 08:14:08;;;;;;;4.67;4.30;;;22.50;61.50;;;;;;6252435;28;20286;-60
2021/05/29 08:17:12;;;;;;;5.83;4.60;;;22.20;62.00;;;;;;6252139;28;20562;-60
2021/05/29 08:20:14;;;;;;;4.60;3.67;;;22.60;61.30;;;;;;6252515;28;20251;-61
2021/05/29 08:23:18;;;;;;;5.30;4.47;;;23.10;59.80;;;;;;6251837;28;20697;-60
2021/05/29 08:26:20;;;;;;;4.50;4.10;;;23.50;59.00;;;;;;6252171;28;20232;-60
2021/05/29 08:29:23;;;;;;;4.40;4.00;;;23.60;58.50;;;;;;6252412;28;20243;-61
2021/05/29 08:32:27;;;;;;;4.20;3.90;;;22.90;58.50;;;;;;6252246;28;20232;-60
2021/05/29 08:35:30;;;;;;;4.60;3.30;;;22.90;59.20;;;;;;6251888;28;20239;-60
2021/05/29 08:38:33;;;;;;;3.90;3.70;;;23.00;59.10;;;;;;6251683;28;20578;-60
2021/05/29 08:41:37;;;;;;;4.23;3.70;;;22.80;59.40;;;;;;6251703;28;20232;-60
2021/05/29 08:44:39;;;;;;;3.90;3.60;;;22.50;60.40;;;;;;6251490;28;20239;-60
2021/05/29 08:47:45;;;;;;;4.27;3.87;;;22.10;61.40;;;;;;6251738;28;20560;-59
2021/05/29 08:54:05;;;;;;;3.90;3.53;;;22.40;62.70;;;;;;6251450;28;20232;-60
2021/05/29 08:57:08;;;;;;;3.00;2.80;;;22.60;60.50;;;;;;6251304;28;20681;-60
2021/05/29 09:00:15;;;;;;;4.20;3.90;;;22.60;58.80;;;;;;6251210;28;20232;-60
2021/05/29 09:03:19;;;;;;;4.40;4.13;;;22.70;59.80;;;;;;6250511;28;20685;-59
2021/05/29 09:06:38;;;;;;;3.93;3.70;;;22.30;60.70;;;;;;6250923;28;20243;-60
2021/05/29 09:09:40;;;;;;;4.37;3.77;;;22.30;62.00;;;;;;6251083;28;20236;-60
2021/05/29 09:13:05;;;;;;;3.40;3.13;;;22.80;60.10;;;;;;6251215;28;20232;-59
2021/05/29 09:16:08;;;;;;;3.07;2.77;;;22.90;60.40;;;;;;6250618;28;20233;-60
2021/05/29 09:19:12;;;;;;;3.70;3.40;;;23.30;59.10;;;;;;6250823;28;20246;-60
2021/05/29 09:22:15;;;;;;;5.13;4.73;;;23.30;58.10;;;;;;6250619;28;20246;-59
2021/05/29 09:25:22;;;;;;;4.17;3.87;;;23.00;58.60;;;;;;6250268;28;20243;-61
2021/05/29 09:28:26;;;;;;;3.87;3.57;;;22.30;60.10;;;;;;6250405;28;20533;-60
2021/05/29 09:31:28;;;;;;;4.20;3.90;;;22.50;60.30;;;;;;6250559;28;20204;-60
2021/05/29 09:34:39;;;;;;;5.23;4.83;;;22.90;59.20;;;;;;6250256;28;20231;-60
2021/05/29 09:37:41;;;;;;;4.00;3.70;;;23.20;58.80;;;;;;6250438;28;20570;-59
2021/05/29 09:40:52;;;;;;;3.80;3.10;;;23.70;58.70;;;;;;6250369;28;20232;-59
2021/05/29 09:43:57;;;;;;;3.97;3.67;;;23.90;58.40;;;;;;6250348;28;20575;-60
2021/05/29 09:47:03;;;;;;;3.97;3.67;;;24.50;57.00;;;;;;6250625;28;20228;-60
2021/05/29 09:50:08;;;;;;;4.50;4.20;;;25.00;55.80;;;;;;6250657;28;20258;-59
2021/05/29 09:53:25;;;;;;;4.30;3.90;;;25.20;54.90;;;;;;6250059;28;20759;-60
2021/05/29 09:56:31;;;;;;;4.40;3.97;;;23.50;57.40;;;;;;6249981;28;20686;-59
2021/05/29 09:59:34;;;;;;;4.40;4.10;;;23.70;58.10;;;;;;6249818;28;20240;-60
2021/05/29 10:02:38;;;;;;;4.43;4.07;;;23.90;57.80;;;;;;6250132;28;20232;-60
2021/05/29 10:05:47;;;;;;;4.90;4.07;;;23.90;57.50;;;;;;6240598;28;20334;-59
2021/05/29 10:08:50;;;;;;;5.63;5.13;;;23.70;57.70;;;;;;6250150;28;20228;-59
2021/05/29 10:11:53;;;;;;;8.07;4.93;;;23.50;58.30;;;;;;6249561;28;20231;-60
2021/05/29 10:14:56;;;;;;;4.97;3.97;;;23.70;58.00;;;;;;6249716;28;20236;-59
2021/05/29 10:18:02;;;;;;;5.93;5.00;;;23.70;57.70;;;;;;6249697;28;20270;-59
2021/05/29 10:21:06;;;;;;;5.40;4.90;;;22.60;59.40;;;;;;6249583;28;20228;-59
2021/05/29 10:24:09;;;;;;;5.33;4.83;;;22.40;61.00;;;;;;6249660;28;20244;-59
2021/05/29 10:27:13;;;;;;;4.80;4.40;;;22.40;62.10;;;;;;6249476;28;20228;-58
2021/05/29 10:30:19;;;;;;;5.87;5.37;;;22.20;62.50;;;;;;6249566;28;20702;-59
2021/05/29 10:33:23;;;;;;;6.30;5.70;;;22.30;62.10;;;;;;6249344;28;20228;-59
2021/05/29 10:36:41;;;;;;;5.70;5.17;;;22.40;62.60;;;;;;6249264;28;20251;-59
2021/05/29 10:39:44;;;;;;;5.20;4.90;;;22.30;63.00;;;;;;6249202;28;20236;-60
2021/05/29 10:42:49;;;;;;;5.80;5.30;;;22.50;62.50;;;;;;6249556;28;20570;-60
2021/05/29 10:46:10;;;;;;;5.30;4.83;;;22.20;62.50;;;;;;6249193;28;20223;-60
2021/05/29 10:49:13;;;;;;;5.40;4.90;;;21.90;64.10;;;;;;6249189;28;20319;-59
2021/05/29 10:52:50;;;;;;;4.50;4.20;;;22.00;62.90;;;;;;6248979;28;20244;-59
2021/05/29 10:55:53;;;;;;;5.53;5.13;;;22.30;62.90;;;;;;6248714;28;20247;-60
2021/05/29 10:58:57;;;;;;;5.73;5.33;;;22.20;62.60;;;;;;6249025;28;20570;-59
2021/05/29 11:02:09;;;;;;;4.37;4.07;;;22.10;63.70;;;;;;6249118;28;20231;-59
2021/05/29 11:05:32;;;;;;;5.07;4.67;;;22.30;64.60;;;;;;6249180;28;20243;-59
2021/05/29 11:08:55;;;;;;;4.83;4.30;;;22.20;63.30;;;;;;6244396;28;20232;-60
2021/05/29 11:11:58;;;;;;;4.10;3.70;;;22.20;63.20;;;;;;6249077;28;20224;-60
2021/05/29 11:15:01;;;;;;;4.93;4.33;;;22.30;62.00;;;;;;6248665;28;20704;-60
2021/05/29 11:18:09;;;;;;;4.60;4.30;;;22.30;62.60;;;;;;6248884;28;20685;-60
2021/05/29 11:21:13;;;;;;;4.90;4.50;;;22.40;62.30;;;;;;6248617;28;20239;-60
2021/05/29 11:24:18;;;;;;;4.83;4.27;;;22.00;63.50;;;;;;6248948;28;20578;-60
2021/05/29 11:27:23;;;;;;;5.47;5.07;;;22.00;64.60;;;;;;6253238;28;20243;-60
2021/05/29 11:30:32;;;;;;;5.07;4.60;;;21.80;64.40;;;;;;6253648;28;20239;-60
2021/05/29 11:33:36;;;;;;;5.10;4.67;;;21.80;63.70;;;;;;6253274;28;20240;-60
2021/05/29 11:36:41;;;;;;;5.60;5.20;;;21.60;65.00;;;;;;6252995;28;20228;-61
2021/05/29 11:39:53;;;;;;;6.27;4.90;;;21.40;66.20;;;;;;6253013;28;20374;-61
2021/05/29 11:42:55;;;;;;;5.47;4.97;;;21.60;66.40;;;;;;6253195;28;20262;-60
2021/05/29 11:46:00;;;;;;;5.70;5.20;;;21.60;65.20;;;;;;6253099;28;20236;-60
2021/05/29 11:49:05;;;;;;;4.90;4.60;;;21.40;64.90;;;;;;6252869;28;20278;-60
2021/05/29 11:52:08;;;;;;;4.40;4.10;;;21.20;66.10;;;;;;6253029;28;20247;-60
2021/05/29 11:55:14;;;;;;;4.80;4.50;;;21.30;65.90;;;;;;6252847;28;20236;-60
2021/05/29 11:58:17;;;;;;;5.73;4.80;;;21.40;65.40;;;;;;6252819;28;20248;-60
2021/05/29 12:01:22;;;;;;;7.23;6.23;;;21.10;66.00;;;;;;6252577;28;20228;-60
2021/05/29 12:04:27;;;;;;;5.00;4.60;;;20.60;68.00;;;;;;6252855;28;20228;-60
2021/05/29 12:07:30;;;;;;;5.37;4.97;;;20.60;68.40;;;;;;6252527;28;20275;-60
2021/05/29 12:10:50;;;;;;;5.10;4.80;;;20.70;70.30;;;;;;6247906;28;20220;-60
2021/05/29 12:14:02;;;;;;;5.10;4.80;;;20.50;72.30;;;;;;6251903;28;20233;-62
2021/05/29 12:17:07;;;;;;;4.73;4.43;;;20.20;73.70;;;;;;6252437;28;20235;-61
2021/05/29 12:20:11;;;;;;;4.47;4.07;;;20.00;74.40;;;;;;6252071;28;20566;-60
2021/05/29 12:23:14;;;;;;;4.40;4.10;;;20.10;75.80;;;;;;6252617;28;20236;-61
2021/05/29 12:26:19;;;;;;;4.50;4.17;;;20.50;75.00;;;;;;6252054;28;20236;-60
2021/05/29 12:29:24;;;;;;;5.70;5.20;;;20.60;75.10;;;;;;6252040;28;20239;-60
2021/05/29 12:32:31;;;;;;;4.80;4.50;;;20.60;75.10;;;;;;6251900;28;20232;-60
2021/05/29 12:35:49;;;;;;;5.40;4.90;;;20.40;77.00;;;;;;6251800;28;20307;-60
2021/05/29 12:38:54;;;;;;;5.37;4.93;;;20.10;77.90;;;;;;6250279;28;20239;-60
2021/05/29 12:41:58;;;;;;;5.33;4.93;;;20.40;78.50;;;;;;6251829;28;20243;-60
2021/05/29 12:45:06;;;;;;;4.70;4.40;;;20.70;77.90;;;;;;6251783;28;20247;-61
2021/05/29 12:48:12;;;;;;;4.87;4.47;;;20.90;77.20;;;;;;6251442;28;20339;-60
2021/05/29 12:51:15;;;;;;;5.10;4.70;;;21.20;75.80;;;;;;6251481;28;20553;-59
2021/05/29 12:54:18;;;;;;;5.97;5.47;;;21.60;73.40;;;;;;6251424;28;20708;-59
2021/05/29 12:57:23;;;;;;;5.07;4.67;;;21.50;71.60;;;;;;6250702;28;20590;-60
2021/05/29 13:00:32;;;;;;;4.20;3.90;;;21.50;72.90;;;;;;6251829;28;20315;-60
2021/05/29 13:10:20;;;;;;;5.73;4.73;;;21.00;75.50;;;;;;6250896;28;20233;-60
2021/05/29 13:13:24;;;;;;;4.87;4.53;;;20.80;75.30;;;;;;6242326;28;20208;-60
2021/05/29 13:16:27;;;;;;;3.93;3.63;;;20.80;76.30;;;;;;6250770;28;20239;-61
2021/05/29 13:19:31;;;;;;;4.70;4.30;;;21.10;75.60;;;;;;6250696;28;20689;-60
2021/05/29 13:22:35;;;;;;;4.93;4.43;;;21.30;75.10;;;;;;6250657;28;20534;-60
2021/05/29 13:25:40;;;;;;;4.60;4.30;;;21.10;73.70;;;;;;6250629;28;20224;-60
2021/05/29 13:28:44;;;;;;;5.23;4.87;;;21.20;74.30;;;;;;6250416;28;20232;-60
2021/05/29 13:31:47;;;;;;;4.80;4.40;;;20.80;73.80;;;;;;6250882;28;20692;-60
2021/05/29 13:34:52;;;;;;;4.80;4.40;;;20.60;75.10;;;;;;6250829;28;20224;-60
2021/05/29 13:37:54;;;;;;;4.90;4.50;;;20.80;74.30;;;;;;6250830;28;20232;-60
2021/05/29 13:40:57;;;;;;;3.97;3.70;;;20.20;75.40;;;;;;6250676;28;20238;-60
2021/05/29 13:44:01;;;;;;;4.20;3.90;;;19.90;76.80;;;;;;6250458;28;20566;-60
2021/05/29 13:47:04;;;;;;;3.60;3.30;;;20.00;78.00;;;;;;6250789;28;20566;-60
2021/05/29 13:50:08;;;;;;;5.60;4.00;;;20.40;78.50;;;;;;6249567;28;20824;-60
2021/05/29 13:53:11;;;;;;;3.93;3.63;;;20.00;79.10;;;;;;6250309;28;20235;-60
2021/05/29 13:56:14;;;;;;;4.13;3.77;;;19.50;80.30;;;;;;6249780;28;20587;-59
2021/05/29 13:59:18;;;;;;;3.97;3.63;;;19.20;79.10;;;;;;6249916;28;20717;-60
2021/05/29 14:02:21;;;;;;;5.67;3.90;;;19.10;79.90;;;;;;6249798;28;20239;-60
2021/05/29 14:05:23;;;;;;;4.07;3.77;;;19.00;79.90;;;;;;6250371;28;20243;-60
2021/05/29 14:08:26;;;;;;;3.80;3.47;;;19.20;80.00;;;;;;6249756;28;20253;-60
2021/05/29 14:11:31;;;;;;;6.37;3.87;;;19.40;79.20;;;;;;6250144;28;20228;-60
2021/05/29 14:14:35;;;;;;;3.37;3.17;;;19.30;79.50;;;;;;6249650;28;20232;-60
2021/05/29 14:17:38;;;;;;;4.70;3.73;;;19.10;82.10;;;;;;6244791;28;20574;-60
2021/05/29 14:20:41;;;;;;;5.03;3.90;;;19.10;86.20;;;;;;6249914;28;20243;-61
2021/05/29 14:23:44;;;;;;;3.87;3.57;;;19.00;87.10;;;;;;6249735;28;20239;-60
2021/05/29 14:26:46;;;;;;;6.33;4.30;;;19.00;88.80;;;;;;6249664;28;20235;-60
2021/05/29 14:29:50;;;;;;;4.20;3.90;;;18.70;90.70;;;;;;6249407;28;20230;-60
2021/05/29 14:32:53;;;;;;;4.90;3.90;;;18.00;90.20;;;;;;6249648;28;20801;-59
2021/05/29 14:35:56;;;;;;;5.70;4.30;;;17.30;90.70;;;;;;6249042;28;20483;-60
2021/05/29 14:39:01;;;;;;;4.53;3.97;;;17.00;91.60;;;;;;6249379;28;20529;-60
2021/05/29 14:42:05;;;;;;;5.00;4.50;;;17.00;92.80;;;;;;6249473;28;20506;-60
2021/05/29 14:45:10;;;;;;;4.87;4.47;;;17.30;94.80;;;;;;6249505;28;20479;-60
2021/05/29 14:48:13;;;;;;;4.50;3.97;;;17.80;94.40;;;;;;6249354;28;20478;-60
2021/05/29 14:51:18;;;;;;;3.27;3.07;;;18.30;94.10;;;;;;6249478;28;20463;-60
2021/05/29 14:54:23;;;;;;;3.60;3.40;;;18.70;89.70;;;;;;6248988;28;20495;-60
2021/05/29 14:57:27;;;;;;;4.67;3.60;;;19.10;89.50;;;;;;6249120;28;20471;-60
2021/05/29 15:00:31;;;;;;;3.90;3.47;;;19.30;88.40;;;;;;6250548;28;20224;-60
2021/05/29 15:03:36;;;;;;;4.10;3.50;;;19.60;89.40;;;;;;6254050;28;20224;-61
2021/05/29 15:06:40;;;;;;;3.10;2.80;;;19.70;86.90;;;;;;6253940;28;20238;-60
2021/05/29 15:09:43;;;;;;;3.20;2.97;;;19.60;86.80;;;;;;6253947;28;20224;-60
2021/05/29 15:12:45;;;;;;;3.97;3.60;;;19.40;84.50;;;;;;6253999;28;20274;-61
2021/05/29 15:15:49;;;;;;;2.93;2.73;;;19.40;86.20;;;;;;6253520;28;20251;-59
2021/05/29 15:18:52;;;;;;;3.47;3.17;;;19.50;85.30;;;;;;6253530;28;20297;-59
2021/05/29 15:21:56;;;;;;;6.40;3.50;;;19.60;85.30;;;;;;6248882;28;20236;-58
2021/05/29 15:24:58;;;;;;;3.53;3.23;;;19.70;86.30;;;;;;6253532;28;20247;-59
2021/05/29 15:28:01;;;;;;;4.23;3.83;;;19.60;84.90;;;;;;6253160;28;20247;-59
2021/05/29 15:31:05;;;;;;;4.77;3.50;;;19.40;86.90;;;;;;6253456;28;20224;-59
2021/05/29 15:34:11;;;;;;;3.77;3.47;;;19.40;88.10;;;;;;6252823;28;20255;-60
2021/05/29 15:37:13;;;;;;;3.47;3.17;;;19.40;87.10;;;;;;6253070;28;20231;-60
2021/05/29 15:40:17;;;;;;;3.67;3.37;;;19.30;86.40;;;;;;6253293;28;20224;-60
2021/05/29 15:43:19;;;;;;;5.00;3.20;;;18.80;88.60;;;;;;6253096;28;20232;-59
2021/05/29 15:46:23;;;;;;;4.60;3.77;;;18.50;90.50;;;;;;6252871;28;20232;-59
2021/05/29 15:49:26;;;;;;;3.70;3.40;;;18.60;91.10;;;;;;6252827;28;20541;-60
2021/05/29 15:52:29;;;;;;;2.97;2.77;;;18.50;90.90;;;;;;6252777;28;20204;-60
2021/05/29 15:55:34;;;;;;;3.97;3.67;;;18.60;90.30;;;;;;6252893;28;20337;-63
2021/05/29 15:58:40;;;;;;;3.10;2.90;;;18.60;90.20;;;;;;6252588;28;20877;-59
2021/05/29 16:01:44;;;;;;;2.80;2.60;;;18.50;90.00;;;;;;6252932;28;20232;-61
2021/05/29 16:04:47;;;;;;;3.40;3.20;;;18.30;90.10;;;;;;6252985;28;20533;-59
2021/05/29 16:07:49;;;;;;;4.17;3.73;;;17.90;90.80;;;;;;6252313;28;20462;-59
2021/05/29 16:10:52;;;;;;;3.47;3.17;;;17.70;91.70;;;;;;6252229;28;20990;-59
2021/05/29 16:13:56;;;;;;;3.70;3.40;;;17.50;92.00;;;;;;6252165;28;20479;-59
2021/05/29 16:16:59;;;;;;;2.87;2.67;;;17.10;92.30;;;;;;6252773;28;20471;-59
2021/05/29 16:20:06;;;;;;;3.23;3.00;;;16.90;92.10;;;;;;6252256;28;20475;-60